Time;durP1;ratioP1;P1;durP2;ratioP2;P2;SDS_P1;SDS_P2;PMS_P1;PMS_P2;Temp;Humidity;BMP_temperature;BMP_pressure;BME280_temperature;BME280_humidity;BME280_pressure;Samples;Min_cycle;Max_cycle;Signal;HPM_P1;HPM_P2
2021/12/01 00:00:27;;;;;;;60.85;45.80;;;21.20;92.20;;;;;;4200922;28;20550;-72
2021/12/01 00:02:35;;;;;;;60.08;45.05;;;21.10;92.30;;;;;;4190000;28;20108;-72
2021/12/01 00:04:42;;;;;;;59.42;44.20;;;21.20;92.20;;;;;;4186721;28;20052;-71
2021/12/01 00:06:49;;;;;;;57.08;43.42;;;21.20;92.20;;;;;;4187044;28;20067;-72
2021/12/01 00:08:56;;;;;;;69.15;44.95;;;21.30;92.10;;;;;;4189850;28;20437;-70
2021/12/01 00:11:05;;;;;;;56.72;43.80;;;21.30;92.00;;;;;;4191915;28;20062;-70
2021/12/01 00:13:16;;;;;;;56.40;42.50;;;21.30;92.00;;;;;;4177997;28;20057;-70
2021/12/01 00:15:26;;;;;;;60.17;44.80;;;21.30;92.00;;;;;;4194128;28;20499;-70
2021/12/01 00:17:42;;;;;;;54.55;43.05;;;21.30;92.10;;;;;;4192686;28;20076;-70
2021/12/01 00:20:08;;;;;;;53.17;42.25;;;21.20;92.20;;;;;;4181194;28;20045;-70
2021/12/01 00:22:15;;;;;;;58.25;45.28;;;21.10;92.40;;;;;;4194879;28;20127;-71
2021/12/01 00:24:20;;;;;;;54.75;44.47;;;21.00;92.50;;;;;;4194366;28;20056;-70
2021/12/01 00:26:26;;;;;;;65.75;46.60;;;21.00;92.50;;;;;;4194705;28;20045;-70
2021/12/01 00:28:31;;;;;;;60.58;47.42;;;21.00;92.50;;;;;;4194280;28;20157;-70
2021/12/01 00:30:40;;;;;;;64.60;47.40;;;21.10;92.70;;;;;;4192579;28;20131;-71
2021/12/01 00:32:45;;;;;;;66.25;48.25;;;20.90;92.70;;;;;;4194304;28;20059;-71
2021/12/01 00:34:53;;;;;;;64.20;47.67;;;20.90;92.90;;;;;;4194567;28;20582;-69
2021/12/01 00:37:05;;;;;;;68.65;48.95;;;21.00;92.60;;;;;;4176075;28;20599;-70
2021/12/01 00:39:11;;;;;;;62.22;46.47;;;20.90;92.90;;;;;;4194321;28;20041;-70
2021/12/01 00:41:20;;;;;;;57.70;46.47;;;20.80;92.90;;;;;;4194736;28;20483;-70
2021/12/01 00:43:26;;;;;;;68.03;46.58;;;21.00;92.80;;;;;;4189042;28;20044;-69
2021/12/01 00:45:33;;;;;;;73.35;45.80;;;21.00;93.00;;;;;;4196474;28;20259;-71
2021/12/01 00:47:50;;;;;;;61.03;46.60;;;20.90;92.80;;;;;;4175754;28;21146;-72
2021/12/01 00:49:57;;;;;;;63.40;46.45;;;21.00;93.10;;;;;;4193836;28;20055;-71
2021/12/01 00:52:03;;;;;;;64.40;45.83;;;21.10;92.70;;;;;;4193487;28;20565;-71
2021/12/01 00:54:17;;;;;;;59.47;46.08;;;21.10;92.90;;;;;;4193460;28;20131;-71
2021/12/01 00:56:24;;;;;;;59.67;47.33;;;21.10;92.70;;;;;;4192540;28;20055;-71
2021/12/01 00:58:31;;;;;;;69.75;49.97;;;21.00;92.90;;;;;;4193627;28;20511;-71
2021/12/01 01:00:36;;;;;;;61.97;47.58;;;21.00;93.00;;;;;;4193512;28;20088;-71
2021/12/01 01:02:41;;;;;;;70.93;49.83;;;21.10;92.90;;;;;;4193691;28;20029;-70
2021/12/01 01:04:56;;;;;;;67.93;47.58;;;21.00;93.10;;;;;;4194126;28;20048;-70
2021/12/01 01:07:01;;;;;;;76.70;51.67;;;21.00;93.20;;;;;;4193388;28;20102;-70
2021/12/01 01:09:07;;;;;;;65.05;48.00;;;21.20;92.70;;;;;;4194230;28;20044;-71
2021/12/01 01:18:15;;;;;;;70.35;49.45;;;21.40;92.40;;;;;;4194047;28;20140;-71
2021/12/01 01:20:19;;;;;;;68.55;47.83;;;21.60;91.90;;;;;;4193529;28;20079;-71
2021/12/01 01:22:31;;;;;;;70.82;46.10;;;21.60;91.20;;;;;;4194729;28;20123;-71
2021/12/01 01:24:45;;;;;;;70.03;45.85;;;21.60;91.20;;;;;;4190875;28;20036;-71
2021/12/01 01:26:56;;;;;;;68.88;48.08;;;21.70;91.00;;;;;;4192479;28;20084;-71
2021/12/01 01:29:09;;;;;;;63.10;45.17;;;21.90;90.60;;;;;;4187200;28;20052;-71
2021/12/01 01:31:33;;;;;;;67.03;46.47;;;21.90;90.50;;;;;;4194074;28;20036;-70
2021/12/01 01:33:43;;;;;;;69.82;48.15;;;22.00;90.20;;;;;;4192338;28;20036;-71
2021/12/01 01:35:49;;;;;;;72.53;46.88;;;22.00;90.40;;;;;;4190262;28;20044;-71
2021/12/01 01:37:55;;;;;;;76.60;53.70;;;22.20;90.20;;;;;;4191867;28;20037;-70
2021/12/01 01:40:22;;;;;;;73.75;54.13;;;22.20;90.00;;;;;;4177577;28;20549;-71
2021/12/01 01:42:34;;;;;;;77.28;52.60;;;22.20;90.20;;;;;;4184282;28;20519;-71
2021/12/01 01:44:42;;;;;;;74.22;51.90;;;22.00;90.00;;;;;;4189273;28;20044;-71
2021/12/01 01:46:59;;;;;;;77.35;54.60;;;22.00;90.10;;;;;;4195208;28;20469;-71
2021/12/01 01:49:13;;;;;;;65.05;46.83;;;22.00;90.10;;;;;;4193901;28;20117;-71
2021/12/01 01:51:21;;;;;;;55.80;40.35;;;22.00;89.50;;;;;;4192404;28;20071;-71
2021/12/01 01:53:29;;;;;;;59.05;38.63;;;22.10;89.20;;;;;;4194836;28;20496;-71
2021/12/01 01:55:35;;;;;;;48.95;37.72;;;22.20;89.10;;;;;;4193390;28;20117;-71
2021/12/01 01:57:44;;;;;;;50.15;37.63;;;22.40;89.10;;;;;;4192595;28;20521;-71
2021/12/01 01:59:49;;;;;;;51.42;38.40;;;22.50;89.00;;;;;;4187663;28;20045;-72
2021/12/01 02:01:59;;;;;;;60.17;42.05;;;22.50;89.00;;;;;;4195687;28;20523;-70
2021/12/01 02:04:06;;;;;;;61.65;42.00;;;22.60;88.90;;;;;;4194597;28;20106;-69
2021/12/01 02:06:13;;;;;;;53.10;41.15;;;22.60;88.90;;;;;;4192575;28;20596;-71
2021/12/01 02:08:40;;;;;;;45.10;30.73;;;22.60;89.10;;;;;;4193906;28;20130;-70
2021/12/01 02:10:48;;;;;;;41.22;30.10;;;22.40;87.20;;;;;;4192774;28;20094;-72
2021/12/01 02:12:59;;;;;;;39.25;28.05;;;22.50;86.80;;;;;;4193223;28;20080;-74
2021/12/01 02:15:07;;;;;;;38.30;27.42;;;22.50;86.40;;;;;;4191299;28;20087;-72
2021/12/01 02:17:17;;;;;;;39.97;29.20;;;22.50;85.80;;;;;;4192444;28;20625;-70
2021/12/01 02:19:21;;;;;;;44.42;28.88;;;22.50;85.80;;;;;;4191437;28;20063;-70
2021/12/01 02:21:28;;;;;;;45.25;29.73;;;22.60;86.00;;;;;;4193619;28;20055;-70
2021/12/01 02:23:39;;;;;;;48.03;29.35;;;22.70;85.60;;;;;;4193905;28;20048;-70
2021/12/01 02:25:43;;;;;;;47.60;28.05;;;22.60;85.50;;;;;;4191531;28;20408;-70
2021/12/01 02:27:48;;;;;;;38.55;27.83;;;22.70;85.40;;;;;;4193745;28;20102;-71
2021/12/01 02:29:55;;;;;;;41.42;29.25;;;22.80;84.60;;;;;;4193265;28;20190;-71
2021/12/01 02:32:04;;;;;;;38.17;29.40;;;22.80;84.20;;;;;;4191067;28;20136;-72
2021/12/01 02:34:17;;;;;;;45.47;28.10;;;22.80;85.00;;;;;;4190466;28;20037;-71
2021/12/01 02:36:24;;;;;;;38.38;27.58;;;22.70;84.80;;;;;;4191591;28;20049;-72
2021/12/01 02:38:29;;;;;;;34.63;25.27;;;22.80;85.30;;;;;;4192491;28;20071;-71
2021/12/01 02:40:34;;;;;;;40.67;25.65;;;22.90;83.00;;;;;;4192377;28;20067;-71
2021/12/01 02:42:41;;;;;;;36.10;25.40;;;23.00;83.30;;;;;;4191487;28;20040;-71
2021/12/01 02:44:49;;;;;;;39.95;26.15;;;23.10;83.10;;;;;;4193260;28;20572;-71
2021/12/01 02:46:55;;;;;;;39.65;26.40;;;23.00;82.30;;;;;;4193110;28;20068;-71
2021/12/01 02:49:03;;;;;;;39.17;25.95;;;23.00;82.40;;;;;;4191347;28;20040;-71
2021/12/01 02:51:11;;;;;;;35.15;26.00;;;23.10;82.60;;;;;;4192977;28;20048;-71
2021/12/01 02:53:19;;;;;;;44.97;25.95;;;23.30;82.60;;;;;;4192827;28;20113;-71
2021/12/01 02:55:25;;;;;;;37.10;26.70;;;23.30;81.90;;;;;;4191645;28;20049;-71
2021/12/01 02:57:45;;;;;;;36.67;27.02;;;23.30;81.40;;;;;;4193633;28;20131;-71
2021/12/01 02:59:52;;;;;;;35.30;25.60;;;23.20;81.20;;;;;;4192672;28;20060;-71
2021/12/01 03:01:57;;;;;;;37.22;26.02;;;23.30;80.90;;;;;;4192685;28;20056;-70
2021/12/01 03:04:08;;;;;;;38.45;25.70;;;23.30;79.90;;;;;;4190840;28;20047;-69
2021/12/01 03:06:17;;;;;;;40.05;26.30;;;23.40;80.20;;;;;;4192926;28;20051;-70
2021/12/01 03:08:25;;;;;;;40.53;26.63;;;23.40;80.30;;;;;;4193168;28;20051;-70
2021/12/01 03:10:31;;;;;;;36.17;26.58;;;23.30;80.50;;;;;;4192690;28;20102;-70
2021/12/01 03:12:50;;;;;;;37.65;25.98;;;23.40;80.40;;;;;;4191844;28;20124;-69
2021/12/01 03:15:01;;;;;;;39.35;25.17;;;23.50;80.40;;;;;;4176286;28;20087;-70
2021/12/01 03:17:08;;;;;;;37.80;24.33;;;23.60;80.00;;;;;;4191115;28;20276;-71
2021/12/01 03:19:23;;;;;;;56.72;23.85;;;23.70;77.80;;;;;;4191444;28;20888;-70
2021/12/01 03:21:38;;;;;;;34.25;22.00;;;23.70;78.50;;;;;;4190259;28;20058;-71
2021/12/01 03:23:46;;;;;;;30.33;20.92;;;23.80;76.80;;;;;;4184383;28;20036;-70
2021/12/01 03:25:51;;;;;;;34.33;21.77;;;23.90;76.70;;;;;;4184163;28;20048;-69
2021/12/01 03:28:08;;;;;;;33.75;21.85;;;24.00;76.50;;;;;;4185272;28;20037;-69
2021/12/01 03:30:17;;;;;;;30.67;20.40;;;24.10;77.30;;;;;;4191417;28;20526;-69
2021/12/01 03:32:23;;;;;;;25.05;18.90;;;24.10;76.20;;;;;;4190352;28;20067;-69
2021/12/01 03:34:36;;;;;;;;;;;24.20;73.70;;;;;;4191428;28;20079;-69
2021/12/01 03:36:46;;;;;;;26.58;18.38;;;24.20;73.60;;;;;;4193747;28;20011;-70
2021/12/01 03:39:10;;;;;;;24.73;18.50;;;24.30;74.20;;;;;;4195934;28;20048;-70
2021/12/01 03:41:20;;;;;;;28.33;18.63;;;24.50;74.10;;;;;;4190392;28;20402;-69
2021/12/01 03:43:31;;;;;;;24.88;18.45;;;24.50;74.50;;;;;;4186750;28;20044;-69
2021/12/01 03:45:38;;;;;;;29.70;18.63;;;24.50;73.40;;;;;;4187897;28;20045;-69
2021/12/01 03:47:43;;;;;;;23.48;18.10;;;24.60;74.00;;;;;;4194765;28;20413;-69
2021/12/01 03:49:48;;;;;;;27.10;18.48;;;24.60;74.00;;;;;;4194206;28;20364;-70
2021/12/01 03:51:54;;;;;;;32.90;18.88;;;24.70;73.10;;;;;;4196227;28;20063;-69
2021/12/01 03:53:59;;;;;;;25.00;17.52;;;24.70;73.40;;;;;;4195831;28;20036;-69
2021/12/01 03:56:08;;;;;;;25.42;18.08;;;24.70;73.00;;;;;;4194245;28;20399;-69
2021/12/01 03:58:12;;;;;;;27.92;18.65;;;24.70;72.80;;;;;;4195923;28;20043;-69
2021/12/01 04:00:21;;;;;;;29.70;19.20;;;24.70;73.20;;;;;;4189157;28;20044;-69
2021/12/01 04:02:26;;;;;;;26.95;17.77;;;24.80;72.90;;;;;;4191199;28;20510;-69
2021/12/01 04:04:32;;;;;;;26.48;17.45;;;24.80;72.70;;;;;;4189908;28;20044;-70
2021/12/01 04:06:37;;;;;;;25.35;18.40;;;24.80;72.50;;;;;;4182318;28;20106;-69
2021/12/01 04:08:41;;;;;;;31.30;18.45;;;24.90;73.10;;;;;;4172755;28;20321;-70
2021/12/01 04:10:46;;;;;;;23.45;17.98;;;24.90;72.50;;;;;;4182800;28;20051;-71
2021/12/01 04:12:50;;;;;;;35.60;18.55;;;25.00;74.00;;;;;;4194658;28;20040;-70
2021/12/01 04:14:56;;;;;;;23.98;17.60;;;25.00;72.90;;;;;;4177493;28;20446;-72
2021/12/01 04:17:00;;;;;;;27.63;17.77;;;25.00;72.00;;;;;;4165767;28;20394;-71
2021/12/01 04:19:06;;;;;;;28.02;17.77;;;25.00;73.10;;;;;;4177505;28;20156;-70
2021/12/01 04:21:10;;;;;;;25.95;16.90;;;25.10;71.90;;;;;;4195069;28;20127;-70
2021/12/01 04:23:15;;;;;;;25.73;16.77;;;25.00;71.70;;;;;;4195202;28;20040;-72
2021/12/01 04:25:21;;;;;;;31.13;17.25;;;25.00;72.30;;;;;;4186243;28;20047;-71
2021/12/01 04:27:26;;;;;;;32.17;16.83;;;25.10;71.90;;;;;;4192805;28;20470;-71
2021/12/01 04:29:30;;;;;;;29.48;16.35;;;25.20;72.20;;;;;;4188977;28;20519;-72
2021/12/01 04:31:36;;;;;;;20.42;16.20;;;25.30;72.50;;;;;;4193018;28;20055;-71
2021/12/01 04:33:41;;;;;;;23.75;16.48;;;25.40;71.30;;;;;;4195680;28;20059;-71
2021/12/01 04:35:49;;;;;;;24.35;15.77;;;25.40;71.10;;;;;;4196006;28;20072;-71
2021/12/01 04:37:54;;;;;;;21.27;16.15;;;25.40;71.70;;;;;;4188213;28;20372;-71
2021/12/01 04:40:00;;;;;;;24.48;16.38;;;25.40;71.70;;;;;;4190207;28;20112;-72
2021/12/01 04:42:06;;;;;;;24.92;16.55;;;25.50;71.60;;;;;;4177044;28;20047;-72
2021/12/01 04:44:14;;;;;;;24.00;17.83;;;25.50;71.60;;;;;;4179230;28;20052;-72
2021/12/01 04:46:20;;;;;;;24.85;16.73;;;25.50;71.80;;;;;;4192402;28;20411;-72
2021/12/01 04:48:26;;;;;;;27.13;16.63;;;25.60;72.20;;;;;;4194611;28;20406;-72
2021/12/01 04:50:31;;;;;;;26.88;17.30;;;25.70;71.20;;;;;;4187385;28;20051;-71
2021/12/01 04:52:36;;;;;;;23.52;17.25;;;25.80;71.70;;;;;;4193795;28;20542;-71
2021/12/01 04:54:41;;;;;;;25.30;17.10;;;25.90;71.10;;;;;;4187144;28;20581;-70
2021/12/01 04:56:48;;;;;;;25.30;15.73;;;25.80;70.50;;;;;;4195195;28;20055;-70
2021/12/01 04:58:53;;;;;;;20.58;15.70;;;25.90;70.80;;;;;;4189347;28;20052;-70
2021/12/01 05:01:01;;;;;;;25.73;15.35;;;25.90;70.60;;;;;;4194794;28;20045;-70
2021/12/01 05:03:06;;;;;;;20.40;15.40;;;25.90;69.50;;;;;;4194338;28;20048;-70
2021/12/01 05:05:26;;;;;;;17.50;14.70;;;25.90;70.30;;;;;;4188162;28;20127;-70
2021/12/01 05:07:30;;;;;;;24.92;15.77;;;25.90;70.60;;;;;;4194867;28;20400;-70
2021/12/01 05:09:35;;;;;;;22.38;15.75;;;26.00;71.20;;;;;;4195562;28;20052;-71
2021/12/01 05:11:40;;;;;;;21.90;16.05;;;26.00;70.90;;;;;;4184633;28;20048;-70
2021/12/01 05:13:46;;;;;;;23.98;15.38;;;26.00;70.70;;;;;;4192113;28;20121;-70
2021/12/01 05:15:52;;;;;;;29.48;16.58;;;26.00;70.70;;;;;;4196236;28;20051;-71
2021/12/01 05:17:57;;;;;;;23.08;15.73;;;26.00;70.10;;;;;;4196662;28;20056;-71
2021/12/01 05:20:04;;;;;;;21.85;15.63;;;26.10;70.50;;;;;;4196213;28;20518;-71
2021/12/01 05:22:10;;;;;;;20.08;16.10;;;26.10;70.70;;;;;;4197782;28;20056;-70
2021/12/01 05:24:15;;;;;;;19.20;14.88;;;26.20;71.10;;;;;;4197996;28;20052;-70
2021/12/01 05:26:19;;;;;;;23.08;14.48;;;26.30;70.30;;;;;;4189409;28;20173;-70
2021/12/01 05:28:24;;;;;;;19.65;14.63;;;26.40;70.20;;;;;;4184840;28;20048;-71
2021/12/01 05:30:29;;;;;;;18.20;14.50;;;26.30;70.50;;;;;;4183555;28;20624;-70
2021/12/01 05:32:33;;;;;;;26.05;15.55;;;26.30;69.80;;;;;;4185260;28;20045;-71
2021/12/01 05:34:37;;;;;;;21.20;15.70;;;26.40;70.30;;;;;;4177443;28;21834;-70
2021/12/01 05:36:42;;;;;;;20.52;15.93;;;26.30;70.40;;;;;;4192637;28;20481;-70
2021/12/01 05:38:47;;;;;;;23.92;15.55;;;26.40;70.40;;;;;;4193598;28;20044;-70
2021/12/01 05:40:52;;;;;;;22.20;15.38;;;26.40;69.90;;;;;;4191226;28;20044;-70
2021/12/01 05:42:56;;;;;;;20.42;15.38;;;26.60;70.90;;;;;;4199820;28;20127;-71
2021/12/01 05:57:06;;;;;;;24.23;14.95;;;26.70;69.70;;;;;;4148192;28;21049;-65
2021/12/01 05:59:32;;;;;;;23.10;15.80;;;26.70;70.30;;;;;;4164265;28;20172;-67
2021/12/01 06:15:50;;;;;;;20.85;13.93;;;27.00;68.70;;;;;;4201931;27;21006;-68
2021/12/01 06:18:15;;;;;;;19.27;13.63;;;26.90;69.60;;;;;;4200332;28;20056;-66
2021/12/01 06:20:40;;;;;;;21.10;13.50;;;26.90;69.00;;;;;;4202810;28;20044;-66
2021/12/01 06:23:05;;;;;;;19.38;14.18;;;26.90;69.00;;;;;;4206226;28;20389;-66
2021/12/01 06:27:25;;;;;;;17.15;13.70;;;27.00;68.40;;;;;;4174211;28;20489;-66
2021/12/01 06:29:33;;;;;;;16.80;12.95;;;27.00;69.50;;;;;;4172572;28;20084;-67
2021/12/01 06:31:37;;;;;;;17.33;13.18;;;27.00;68.20;;;;;;4167617;28;20109;-66
2021/12/01 06:33:42;;;;;;;19.35;13.68;;;27.00;68.60;;;;;;4170055;28;20418;-66
2021/12/01 06:35:56;;;;;;;16.08;13.57;;;27.00;68.70;;;;;;4174921;28;20536;-67
2021/12/01 06:38:01;;;;;;;17.77;12.93;;;27.00;68.90;;;;;;4172036;28;20048;-67
2021/12/01 06:40:06;;;;;;;19.27;12.82;;;27.00;68.20;;;;;;4176084;28;20037;-67
2021/12/01 06:42:11;;;;;;;18.65;13.68;;;27.00;68.20;;;;;;4173460;28;20045;-66
2021/12/01 06:44:17;;;;;;;16.88;12.43;;;27.10;68.40;;;;;;4175443;28;20124;-67
2021/12/01 06:46:23;;;;;;;20.45;12.88;;;27.20;68.50;;;;;;4175386;28;20071;-67
2021/12/01 06:48:28;;;;;;;21.52;13.18;;;27.30;68.50;;;;;;4173353;28;20103;-66
2021/12/01 06:50:33;;;;;;;17.17;12.65;;;27.30;68.40;;;;;;4173464;28;20042;-66
2021/12/01 06:52:41;;;;;;;19.95;13.13;;;27.30;68.90;;;;;;4165169;28;20049;-66
2021/12/01 06:54:45;;;;;;;16.63;12.25;;;27.30;68.40;;;;;;4172634;28;20320;-65
2021/12/01 06:56:50;;;;;;;20.10;12.98;;;27.40;68.00;;;;;;4172285;28;20055;-67
2021/12/01 06:58:54;;;;;;;19.25;13.02;;;27.40;67.60;;;;;;4172992;28;20045;-66
2021/12/01 07:00:59;;;;;;;17.15;13.05;;;27.40;67.60;;;;;;4162604;28;20060;-67
2021/12/01 07:03:03;;;;;;;16.95;13.43;;;27.30;67.70;;;;;;4172630;28;20076;-67
2021/12/01 07:05:10;;;;;;;19.08;13.57;;;27.30;68.30;;;;;;4173551;28;20056;-67
2021/12/01 07:07:14;;;;;;;15.70;13.15;;;27.20;68.60;;;;;;4172387;28;20029;-67
2021/12/01 07:09:21;;;;;;;20.17;12.63;;;27.30;67.50;;;;;;4172971;28;20290;-67
2021/12/01 07:11:25;;;;;;;15.63;12.18;;;27.30;67.90;;;;;;4173278;28;20394;-66
2021/12/01 07:13:32;;;;;;;17.55;12.10;;;27.30;67.10;;;;;;4155765;28;20448;-66
2021/12/01 07:15:36;;;;;;;14.98;12.30;;;27.30;67.60;;;;;;4159441;28;20046;-67
2021/12/01 07:17:42;;;;;;;17.77;12.57;;;27.30;67.50;;;;;;4170479;28;20045;-66
2021/12/01 07:19:48;;;;;;;16.27;11.88;;;27.30;67.60;;;;;;4170419;28;20045;-67
2021/12/01 07:21:52;;;;;;;15.55;12.00;;;27.30;67.60;;;;;;4172776;28;20057;-67
2021/12/01 07:23:57;;;;;;;23.48;12.77;;;27.50;67.80;;;;;;4172113;28;20075;-66
2021/12/01 07:26:02;;;;;;;16.05;11.52;;;27.50;66.70;;;;;;4172321;28;20509;-67
2021/12/01 07:28:07;;;;;;;15.40;12.02;;;27.50;66.40;;;;;;4172442;28;20419;-66
2021/12/01 07:30:11;;;;;;;20.45;11.50;;;27.50;66.80;;;;;;4171848;28;20061;-66
2021/12/01 07:32:16;;;;;;;17.38;11.77;;;27.50;66.70;;;;;;4168703;28;20430;-66
2021/12/01 07:34:21;;;;;;;15.40;10.85;;;27.40;66.80;;;;;;4173610;28;20448;-66
2021/12/01 07:36:25;;;;;;;17.30;11.88;;;27.40;67.00;;;;;;4173954;28;20047;-66
2021/12/01 07:38:29;;;;;;;15.70;11.77;;;27.40;66.80;;;;;;4164285;28;20124;-66
2021/12/01 07:40:34;;;;;;;18.73;11.65;;;27.40;67.30;;;;;;4163163;28;20045;-67
2021/12/01 07:42:40;;;;;;;13.65;10.68;;;27.40;67.10;;;;;;4163411;28;20048;-67
2021/12/01 07:44:44;;;;;;;17.40;10.77;;;27.50;67.10;;;;;;4161891;28;20103;-67
2021/12/01 07:46:48;;;;;;;15.23;10.80;;;27.50;67.50;;;;;;4161488;28;20483;-67
2021/12/01 07:48:53;;;;;;;16.05;10.93;;;27.50;66.90;;;;;;4161596;28;20113;-66
2021/12/01 07:50:57;;;;;;;16.05;10.63;;;27.50;66.90;;;;;;4162884;28;20042;-66
2021/12/01 07:53:02;;;;;;;15.15;11.00;;;27.50;67.00;;;;;;4160337;28;20414;-67
2021/12/01 07:55:07;;;;;;;23.77;11.82;;;27.50;67.30;;;;;;4162525;28;20049;-66
2021/12/01 07:57:11;;;;;;;17.42;13.00;;;27.50;67.30;;;;;;4162646;28;20053;-66
2021/12/01 07:59:18;;;;;;;20.08;14.70;;;27.50;67.70;;;;;;4161211;28;20045;-67
2021/12/01 08:01:23;;;;;;;16.23;12.73;;;27.50;68.10;;;;;;4159688;28;20049;-67
2021/12/01 08:03:27;;;;;;;16.65;12.20;;;27.60;67.30;;;;;;4163347;28;20146;-66
2021/12/01 08:05:34;;;;;;;17.13;11.88;;;27.50;67.30;;;;;;4162954;28;20076;-66
2021/12/01 08:07:39;;;;;;;18.33;12.45;;;27.50;67.50;;;;;;4162740;28;20671;-65
2021/12/01 08:09:43;;;;;;;15.50;11.80;;;27.50;67.20;;;;;;4161400;28;20061;-66
2021/12/01 08:11:47;;;;;;;16.23;11.95;;;27.50;67.60;;;;;;4162944;28;20045;-67
2021/12/01 08:13:51;;;;;;;17.38;12.65;;;27.50;67.80;;;;;;4163071;28;20144;-67
2021/12/01 08:15:56;;;;;;;17.15;12.27;;;27.50;67.80;;;;;;4163002;28;20050;-67
2021/12/01 08:18:00;;;;;;;16.52;12.32;;;27.50;67.90;;;;;;4163085;28;20034;-67
2021/12/01 08:20:05;;;;;;;17.85;12.00;;;27.50;68.00;;;;;;4162102;28;20049;-67
2021/12/01 08:22:09;;;;;;;13.40;12.00;;;27.50;68.30;;;;;;4162991;28;20041;-67
2021/12/01 08:24:14;;;;;;;17.30;12.05;;;27.60;68.00;;;;;;4162969;28;20045;-67
2021/12/01 08:26:19;;;;;;;19.27;13.57;;;27.50;67.50;;;;;;4162817;28;20042;-67
2021/12/01 08:28:24;;;;;;;19.52;13.23;;;27.50;67.70;;;;;;4161800;28;20785;-67
2021/12/01 08:30:30;;;;;;;19.05;13.25;;;27.50;68.10;;;;;;4160818;28;20503;-67
2021/12/01 08:32:35;;;;;;;20.60;12.88;;;27.60;68.00;;;;;;4162758;28;20103;-67
2021/12/01 08:34:39;;;;;;;19.17;12.75;;;27.50;67.90;;;;;;4163124;28;20045;-67
2021/12/01 08:36:46;;;;;;;17.92;13.07;;;27.50;68.20;;;;;;4160814;28;20042;-67
2021/12/01 08:38:51;;;;;;;17.17;12.80;;;27.50;68.00;;;;;;4162985;28;20065;-67
2021/12/01 08:40:55;;;;;;;18.33;12.88;;;27.50;68.30;;;;;;4161992;28;20495;-67
2021/12/01 08:43:00;;;;;;;25.20;13.13;;;27.50;68.90;;;;;;4162622;28;20411;-67
2021/12/01 08:45:06;;;;;;;17.50;12.10;;;27.50;69.20;;;;;;4160470;28;20562;-67
2021/12/01 08:47:11;;;;;;;30.55;12.65;;;27.50;68.90;;;;;;4162623;28;20087;-67
2021/12/01 08:49:16;;;;;;;24.52;13.10;;;27.50;68.60;;;;;;4161414;28;20037;-68
2021/12/01 08:51:20;;;;;;;19.65;12.90;;;27.50;68.70;;;;;;4161895;28;20419;-67
2021/12/01 08:53:25;;;;;;;19.92;12.43;;;27.50;68.60;;;;;;4161352;28;20520;-67
2021/12/01 08:55:30;;;;;;;22.13;12.73;;;27.50;68.70;;;;;;4162640;28;20037;-67
2021/12/01 08:57:43;;;;;;;17.48;12.95;;;27.50;68.30;;;;;;4162502;28;20076;-67
2021/12/01 08:59:49;;;;;;;19.70;13.27;;;27.40;68.70;;;;;;4161646;28;20064;-67
2021/12/01 09:01:53;;;;;;;18.92;13.40;;;27.50;69.00;;;;;;4162101;28;20413;-67
2021/12/01 09:03:58;;;;;;;19.05;13.43;;;27.50;68.90;;;;;;4162338;28;20072;-67
2021/12/01 09:06:02;;;;;;;18.60;12.45;;;27.50;69.30;;;;;;4161734;28;20061;-67
2021/12/01 09:08:07;;;;;;;17.20;12.82;;;27.40;68.60;;;;;;4162493;28;20091;-67
2021/12/01 09:10:11;;;;;;;17.30;11.48;;;27.40;68.50;;;;;;4162273;28;20483;-67
2021/12/01 09:12:15;;;;;;;29.75;12.82;;;27.40;68.90;;;;;;4154924;28;20133;-67
2021/12/01 09:14:23;;;;;;;34.90;13.55;;;27.40;69.10;;;;;;4156147;28;20053;-67
2021/12/01 09:16:27;;;;;;;17.90;12.40;;;27.40;69.50;;;;;;4157202;28;20562;-66
2021/12/01 09:18:33;;;;;;;16.70;12.05;;;27.50;69.50;;;;;;4157237;28;20045;-66
2021/12/01 09:20:37;;;;;;;20.85;13.05;;;27.40;69.40;;;;;;4157233;28;20076;-66
2021/12/01 09:22:42;;;;;;;21.70;13.05;;;27.40;69.40;;;;;;4157385;28;20475;-67
2021/12/01 09:24:47;;;;;;;21.90;12.85;;;27.40;69.40;;;;;;4153794;28;20103;-66
2021/12/01 09:26:51;;;;;;;20.85;13.77;;;27.40;69.40;;;;;;4159312;28;20144;-66
2021/12/01 09:28:56;;;;;;;21.27;14.10;;;27.40;69.50;;;;;;4155843;28;20562;-66
2021/12/01 09:31:00;;;;;;;18.52;13.38;;;27.30;69.40;;;;;;4157886;28;20074;-66
2021/12/01 09:33:04;;;;;;;19.92;12.73;;;27.30;69.90;;;;;;4157305;28;20061;-66
2021/12/01 09:35:09;;;;;;;18.15;12.77;;;27.30;69.10;;;;;;4155513;28;20458;-66
2021/12/01 09:37:14;;;;;;;17.65;12.85;;;27.20;69.30;;;;;;4158178;28;20057;-66
2021/12/01 09:39:19;;;;;;;20.58;13.80;;;27.20;69.40;;;;;;4157705;28;20053;-65
2021/12/01 09:41:24;;;;;;;15.98;12.88;;;27.20;69.20;;;;;;4157254;28;20080;-67
2021/12/01 09:43:31;;;;;;;22.23;12.27;;;27.20;68.90;;;;;;4153663;28;20172;-66
2021/12/01 09:45:35;;;;;;;20.70;12.20;;;27.20;69.40;;;;;;4157403;28;20049;-66
2021/12/01 09:47:39;;;;;;;20.17;11.75;;;27.10;69.70;;;;;;4155324;28;20057;-66
2021/12/01 09:49:44;;;;;;;18.77;11.93;;;27.20;70.00;;;;;;4157317;28;20554;-66
2021/12/01 09:51:48;;;;;;;18.15;11.80;;;27.10;69.90;;;;;;4158057;28;20077;-66
2021/12/01 09:53:54;;;;;;;16.15;11.63;;;27.10;69.80;;;;;;4157330;28;20120;-66
2021/12/01 09:55:58;;;;;;;17.88;12.57;;;27.10;70.00;;;;;;4156010;28;20045;-67
2021/12/01 09:58:06;;;;;;;15.95;12.73;;;27.10;70.00;;;;;;4158304;28;20445;-66
2021/12/01 10:00:11;;;;;;;16.77;13.23;;;27.10;70.10;;;;;;4155009;28;20053;-66
2021/12/01 10:02:17;;;;;;;16.63;13.05;;;27.10;70.20;;;;;;4157951;28;20107;-66
2021/12/01 10:04:21;;;;;;;19.85;12.80;;;27.00;70.10;;;;;;4157803;28;20080;-66
2021/12/01 10:06:27;;;;;;;25.10;12.90;;;27.00;70.50;;;;;;4156937;28;20104;-66
2021/12/01 10:08:34;;;;;;;35.15;14.27;;;27.00;70.60;;;;;;4157513;28;20539;-66
2021/12/01 10:10:39;;;;;;;28.00;12.88;;;27.00;70.90;;;;;;4155152;28;20111;-66
2021/12/01 10:12:49;;;;;;;20.45;13.32;;;27.00;70.90;;;;;;4155499;28;20415;-66
2021/12/01 10:14:57;;;;;;;22.00;12.80;;;26.90;70.90;;;;;;4154355;28;20534;-66
2021/12/01 10:17:02;;;;;;;21.70;12.68;;;26.90;71.40;;;;;;4145290;28;20426;-66
2021/12/01 10:19:11;;;;;;;24.35;12.77;;;26.90;71.40;;;;;;4146558;28;20057;-66
2021/12/01 10:21:20;;;;;;;20.90;12.73;;;26.90;71.50;;;;;;4146267;28;20648;-66
2021/12/01 10:23:24;;;;;;;21.55;13.32;;;26.90;71.70;;;;;;4147490;28;20594;-67
2021/12/01 10:25:33;;;;;;;18.73;13.52;;;26.90;71.90;;;;;;4148756;28;20054;-68
2021/12/01 10:27:38;;;;;;;20.88;14.18;;;26.90;71.90;;;;;;4146762;28;20053;-69
2021/12/01 10:29:51;;;;;;;31.65;24.13;;;26.90;72.00;;;;;;4144434;28;20045;-69
2021/12/01 10:32:00;;;;;;;35.57;27.30;;;26.90;72.10;;;;;;4145942;28;20214;-69
2021/12/01 10:34:37;;;;;;;29.27;23.02;;;26.90;72.40;;;;;;4146216;28;20114;-68
2021/12/01 10:36:41;;;;;;;30.80;20.13;;;26.80;72.70;;;;;;4145404;28;20046;-68
2021/12/01 10:38:46;;;;;;;26.90;18.00;;;26.80;73.00;;;;;;4139935;28;20061;-68
2021/12/01 10:40:52;;;;;;;30.35;19.38;;;26.80;73.10;;;;;;4137965;28;20436;-68
2021/12/01 10:43:01;;;;;;;23.17;18.50;;;26.70;73.10;;;;;;4135662;28;20050;-67
2021/12/01 10:45:07;;;;;;;23.30;17.85;;;26.60;73.20;;;;;;4134218;28;20141;-67
2021/12/01 10:47:13;;;;;;;27.50;18.05;;;26.70;73.40;;;;;;4135793;28;20046;-68
2021/12/01 10:49:33;;;;;;;32.47;19.63;;;26.70;73.60;;;;;;4153734;28;20053;-65
2021/12/01 10:51:40;;;;;;;26.52;17.98;;;26.60;73.70;;;;;;4153710;28;20080;-68
2021/12/01 10:53:45;;;;;;;29.35;17.48;;;26.60;73.60;;;;;;4155398;28;20041;-68
2021/12/01 10:55:51;;;;;;;27.50;17.40;;;26.60;73.80;;;;;;4138864;28;20502;-68
2021/12/01 10:58:03;;;;;;;25.10;16.70;;;26.60;73.80;;;;;;4154858;28;20046;-68
2021/12/01 11:00:31;;;;;;;24.52;19.10;;;26.60;73.90;;;;;;4155571;28;20053;-68
2021/12/01 11:02:36;;;;;;;32.47;18.73;;;26.50;74.00;;;;;;4153807;28;20084;-67
2021/12/01 11:04:48;;;;;;;24.42;18.15;;;26.50;74.10;;;;;;4155586;28;20156;-67
2021/12/01 11:06:52;;;;;;;31.65;16.85;;;26.50;74.20;;;;;;4166948;28;20530;-68
2021/12/01 11:09:01;;;;;;;22.67;15.88;;;26.50;74.30;;;;;;4154738;28;20080;-68
2021/12/01 11:11:13;;;;;;;28.23;15.82;;;26.40;74.30;;;;;;4146933;28;20069;-67
2021/12/01 11:13:32;;;;;;;26.20;15.75;;;26.40;74.50;;;;;;4147767;28;20099;-67
2021/12/01 11:15:38;;;;;;;21.42;15.60;;;26.40;74.60;;;;;;4158618;28;20095;-67
2021/12/01 11:18:02;;;;;;;24.80;15.00;;;26.40;74.90;;;;;;4158987;28;20041;-67
2021/12/01 11:20:07;;;;;;;25.23;16.25;;;26.30;75.30;;;;;;4159730;28;20064;-68
2021/12/01 11:22:36;;;;;;;29.52;16.80;;;26.40;74.90;;;;;;4141014;28;20096;-68